Time;durP1;ratioP1;P1;durP2;ratioP2;P2;SDS_P1;SDS_P2;PMS_P1;PMS_P2;Temp;Humidity;BMP_temperature;BMP_pressure;BME280_temperature;BME280_humidity;BME280_pressure;Samples;Min_cycle;Max_cycle;Signal;HPM_P1;HPM_P2
2021/01/16 00:01:17;;;;;;;22.98;13.05;;;2.20;99.90;;;;;;5039850;28;20211;-81
2021/01/16 00:03:44;;;;;;;19.63;11.88;;;2.40;99.90;;;;;;5038657;28;20203;-81
2021/01/16 00:06:11;;;;;;;20.35;12.70;;;2.50;99.90;;;;;;5036751;28;20212;-81
2021/01/16 00:08:37;;;;;;;21.02;12.50;;;2.70;99.90;;;;;;5036707;28;20230;-81
2021/01/16 00:11:04;;;;;;;22.17;12.60;;;2.60;99.90;;;;;;5036770;28;20293;-81
2021/01/16 00:13:33;;;;;;;20.05;11.73;;;2.70;99.90;;;;;;5037298;28;20223;-81
2021/01/16 00:16:00;;;;;;;18.27;12.18;;;2.60;99.90;;;;;;5038789;28;20247;-81
2021/01/16 00:18:27;;;;;;;19.45;12.07;;;2.80;99.90;;;;;;5040826;28;20227;-81
2021/01/16 00:20:56;;;;;;;20.88;11.82;;;2.70;99.90;;;;;;5057492;28;20209;-81
2021/01/16 00:23:23;;;;;;;18.58;10.57;;;2.70;99.90;;;;;;5037801;28;20249;-81
2021/01/16 00:25:50;;;;;;;21.42;12.35;;;2.70;99.90;;;;;;5036341;28;20203;-81
2021/01/16 00:28:19;;;;;;;22.73;12.02;;;2.60;99.90;;;;;;5036263;28;20227;-81
2021/01/16 00:30:47;;;;;;;21.98;12.93;;;2.70;99.90;;;;;;5036208;28;20514;-81
2021/01/16 00:33:18;;;;;;;19.80;12.38;;;2.50;99.90;;;;;;5036681;28;20573;-81
2021/01/16 00:35:46;;;;;;;19.85;13.02;;;2.30;99.90;;;;;;5036935;28;20199;-81
2021/01/16 00:38:13;;;;;;;21.00;11.70;;;2.50;99.90;;;;;;5036473;28;20219;-81
2021/01/16 00:40:40;;;;;;;20.88;12.35;;;2.50;99.90;;;;;;5036365;28;20199;-81
2021/01/16 00:43:09;;;;;;;19.35;11.75;;;2.60;99.90;;;;;;5036573;28;20576;-81
2021/01/16 00:45:36;;;;;;;20.20;12.27;;;2.50;99.90;;;;;;5036624;28;20867;-81
2021/01/16 00:48:10;;;;;;;22.00;12.45;;;2.50;99.90;;;;;;5036845;28;20271;-81
2021/01/16 00:50:36;;;;;;;20.38;12.70;;;2.30;99.90;;;;;;5047554;28;20198;-81
2021/01/16 00:53:03;;;;;;;20.23;12.98;;;2.50;99.90;;;;;;5056137;28;20211;-81
2021/01/16 00:55:31;;;;;;;21.83;13.85;;;2.60;99.90;;;;;;5041213;28;20216;-81
2021/01/16 00:57:58;;;;;;;23.05;13.40;;;2.70;99.90;;;;;;5035830;28;20231;-81
2021/01/16 01:00:26;;;;;;;24.38;13.40;;;2.20;99.90;;;;;;5039795;28;20209;-81
2021/01/16 01:02:53;;;;;;;25.05;13.77;;;2.50;99.90;;;;;;5047865;28;20333;-81
2021/01/16 01:05:21;;;;;;;21.40;12.90;;;2.40;99.90;;;;;;5036391;28;20207;-80
2021/01/16 01:07:48;;;;;;;19.77;14.02;;;2.50;99.90;;;;;;5035245;28;20704;-81
2021/01/16 01:10:17;;;;;;;20.10;13.30;;;2.60;99.90;;;;;;5034946;28;20196;-81
2021/01/16 01:12:44;;;;;;;25.40;14.23;;;2.50;99.90;;;;;;5045248;28;20703;-81
2021/01/16 01:15:11;;;;;;;20.73;12.75;;;2.50;99.90;;;;;;5040417;28;20222;-81
2021/01/16 01:17:38;;;;;;;24.85;14.13;;;2.40;99.90;;;;;;5039614;28;20227;-81
2021/01/16 01:20:06;;;;;;;21.38;13.30;;;2.60;99.90;;;;;;5048377;28;20207;-80
2021/01/16 01:22:36;;;;;;;21.77;13.10;;;2.70;99.90;;;;;;5042246;28;20257;-81
2021/01/16 01:25:04;;;;;;;22.23;13.52;;;2.50;99.90;;;;;;5035741;28;20265;-81
2021/01/16 01:27:31;;;;;;;23.90;13.27;;;2.60;99.90;;;;;;5035645;28;20280;-81
2021/01/16 01:29:59;;;;;;;23.42;14.00;;;2.60;99.90;;;;;;5055684;28;20210;-81
2021/01/16 01:32:25;;;;;;;24.90;13.30;;;2.60;99.90;;;;;;5028818;28;20199;-81
2021/01/16 01:34:52;;;;;;;22.50;12.70;;;2.30;99.90;;;;;;5043929;28;20226;-81
2021/01/16 01:37:18;;;;;;;21.85;13.82;;;2.50;99.90;;;;;;5044444;28;20195;-81
2021/01/16 01:39:45;;;;;;;23.10;12.98;;;2.60;99.90;;;;;;5035906;28;20211;-81
2021/01/16 01:42:15;;;;;;;27.50;14.18;;;2.50;99.90;;;;;;5036201;28;20207;-81
2021/01/16 01:44:41;;;;;;;24.55;12.57;;;2.50;99.90;;;;;;5037761;28;20602;-81
2021/01/16 01:47:11;;;;;;;23.67;13.10;;;2.50;99.90;;;;;;5044722;28;20207;-81
2021/01/16 01:49:37;;;;;;;22.40;14.23;;;2.60;99.90;;;;;;5035694;28;20602;-81
2021/01/16 01:52:04;;;;;;;22.10;12.75;;;2.80;99.90;;;;;;5035392;28;20203;-81
2021/01/16 01:54:34;;;;;;;22.13;13.18;;;2.80;99.90;;;;;;5035334;28;20237;-81
2021/01/16 01:57:02;;;;;;;22.70;13.80;;;2.80;99.90;;;;;;5034976;28;20199;-81
2021/01/16 01:59:34;;;;;;;22.70;13.98;;;2.40;99.90;;;;;;5035349;28;20235;-81
2021/01/16 02:02:01;;;;;;;25.30;12.65;;;2.50;99.90;;;;;;5035748;28;20233;-81
2021/01/16 02:04:30;;;;;;;21.92;13.18;;;2.50;99.90;;;;;;5036381;28;20203;-81
2021/01/16 02:06:58;;;;;;;22.25;14.60;;;2.40;99.90;;;;;;5022546;28;20207;-81
2021/01/16 02:09:25;;;;;;;22.50;13.13;;;2.30;99.90;;;;;;5039089;28;20231;-81
2021/01/16 02:11:53;;;;;;;22.38;12.77;;;2.70;99.90;;;;;;5035341;28;20203;-81
2021/01/16 02:14:27;;;;;;;21.63;12.65;;;2.90;99.90;;;;;;5035817;28;20265;-81
2021/01/16 02:16:57;;;;;;;20.77;12.18;;;3.10;99.90;;;;;;5036166;28;20501;-80
2021/01/16 02:19:42;;;;;;;21.08;12.82;;;2.80;99.90;;;;;;5047251;28;20214;-81
2021/01/16 02:22:09;;;;;;;23.80;13.70;;;2.60;99.90;;;;;;5044772;28;20203;-81
2021/01/16 02:24:43;;;;;;;21.58;13.30;;;2.60;99.90;;;;;;5043018;28;20238;-81
2021/01/16 02:27:35;;;;;;;21.00;12.55;;;2.70;99.90;;;;;;5032120;28;20211;-82
2021/01/16 02:30:02;;;;;;;26.45;12.90;;;2.80;99.90;;;;;;5036280;28;20337;-81
2021/01/16 02:32:34;;;;;;;22.58;12.95;;;2.70;99.90;;;;;;5039033;28;20207;-81
2021/01/16 02:35:02;;;;;;;27.88;13.45;;;2.50;99.90;;;;;;5032607;28;20290;-81
2021/01/16 02:37:56;;;;;;;23.98;13.70;;;2.70;99.90;;;;;;5044403;28;20223;-82
2021/01/16 02:40:27;;;;;;;27.20;14.30;;;2.70;99.90;;;;;;5029795;28;20199;-81
2021/01/16 02:43:03;;;;;;;23.95;14.25;;;2.70;99.90;;;;;;5039677;28;20229;-81
2021/01/16 02:45:32;;;;;;;23.38;12.48;;;2.60;99.90;;;;;;5034379;28;20199;-79
2021/01/16 02:48:13;;;;;;;23.33;13.65;;;2.80;99.90;;;;;;5042663;28;20222;-79
2021/01/16 02:50:42;;;;;;;25.38;14.15;;;2.80;99.90;;;;;;5042983;28;20261;-81
2021/01/16 02:53:11;;;;;;;22.55;14.10;;;2.80;99.90;;;;;;5042846;28;20215;-81
2021/01/16 02:55:40;;;;;;;22.30;12.55;;;2.80;99.90;;;;;;5042828;28;20285;-81
2021/01/16 02:58:07;;;;;;;21.77;12.30;;;2.70;99.90;;;;;;5041597;28;20235;-83
2021/01/16 03:00:34;;;;;;;22.77;13.57;;;2.80;99.90;;;;;;5042884;28;20211;-79
2021/01/16 03:03:01;;;;;;;25.15;15.00;;;2.60;99.90;;;;;;5042815;28;20809;-79
2021/01/16 03:05:27;;;;;;;22.33;13.43;;;2.80;99.90;;;;;;5041223;28;20238;-79
2021/01/16 03:07:56;;;;;;;26.55;14.05;;;2.50;99.90;;;;;;5041818;28;20277;-79
2021/01/16 03:10:24;;;;;;;22.70;13.18;;;2.60;99.90;;;;;;5041952;28;20210;-81
2021/01/16 03:12:52;;;;;;;24.85;13.90;;;2.70;99.90;;;;;;5042344;28;20249;-83
2021/01/16 03:15:20;;;;;;;24.23;13.60;;;2.70;99.90;;;;;;5040304;28;20239;-80
2021/01/16 03:17:50;;;;;;;28.33;13.88;;;2.70;99.90;;;;;;5040685;28;20773;-79
2021/01/16 03:20:21;;;;;;;22.27;12.30;;;2.60;99.90;;;;;;5045930;28;20648;-79
2021/01/16 03:22:50;;;;;;;24.83;12.82;;;2.70;99.90;;;;;;5039529;28;20288;-79
2021/01/16 03:25:21;;;;;;;21.45;13.23;;;2.50;99.90;;;;;;5042012;28;20697;-79
2021/01/16 03:27:48;;;;;;;25.67;13.18;;;2.60;99.90;;;;;;5041645;28;20227;-80
2021/01/16 03:30:16;;;;;;;25.45;14.82;;;2.60;99.90;;;;;;5042282;28;20204;-79
2021/01/16 03:32:45;;;;;;;25.17;15.38;;;2.60;99.90;;;;;;5043796;28;20215;-80
2021/01/16 03:35:16;;;;;;;26.42;15.90;;;2.70;99.90;;;;;;5043006;28;20231;-80
2021/01/16 03:37:42;;;;;;;25.42;14.45;;;2.60;99.90;;;;;;5043468;28;20550;-80
2021/01/16 03:40:10;;;;;;;22.88;13.50;;;2.60;99.90;;;;;;5037499;28;20241;-80
2021/01/16 03:42:37;;;;;;;25.27;14.50;;;2.60;99.90;;;;;;5021098;28;20252;-80
2021/01/16 03:45:05;;;;;;;25.25;14.32;;;2.50;99.90;;;;;;5036447;28;20274;-80
2021/01/16 03:47:32;;;;;;;27.35;15.13;;;2.60;99.90;;;;;;5034501;28;20235;-80
2021/01/16 03:49:59;;;;;;;20.10;12.93;;;2.70;99.90;;;;;;5039237;28;20211;-80
2021/01/16 03:52:30;;;;;;;27.52;15.93;;;2.70;99.90;;;;;;5042809;28;20211;-80
2021/01/16 03:54:57;;;;;;;29.30;14.10;;;2.60;99.90;;;;;;5034493;28;20319;-81
2021/01/16 03:57:25;;;;;;;27.23;15.20;;;2.70;99.90;;;;;;5033250;28;20312;-80
2021/01/16 03:59:52;;;;;;;29.08;15.25;;;2.80;99.90;;;;;;5032989;28;20211;-80
2021/01/16 04:02:19;;;;;;;23.77;14.80;;;2.50;99.90;;;;;;5033756;28;20313;-80
2021/01/16 04:04:46;;;;;;;29.42;15.38;;;2.70;99.90;;;;;;5032864;28;20546;-80
2021/01/16 04:07:13;;;;;;;27.50;15.20;;;2.70;99.90;;;;;;5034432;28;20199;-80
2021/01/16 04:09:42;;;;;;;25.60;15.65;;;2.70;99.90;;;;;;5033350;28;20226;-80
2021/01/16 04:12:09;;;;;;;29.02;15.05;;;2.70;99.90;;;;;;5033783;28;20207;-80
2021/01/16 04:14:35;;;;;;;25.58;14.70;;;2.70;99.90;;;;;;5033848;28;20278;-81
2021/01/16 04:17:05;;;;;;;29.92;15.30;;;2.80;99.90;;;;;;5033230;28;20207;-80
2021/01/16 04:19:32;;;;;;;24.90;14.52;;;2.70;99.90;;;;;;5039921;28;20582;-80
2021/01/16 04:21:58;;;;;;;26.30;15.82;;;2.70;99.90;;;;;;5034416;28;20204;-80
2021/01/16 04:24:26;;;;;;;27.88;15.90;;;2.70;99.90;;;;;;5038262;28;20210;-80
2021/01/16 04:26:53;;;;;;;27.35;16.02;;;2.60;99.90;;;;;;5042005;28;20211;-80
2021/01/16 04:29:20;;;;;;;25.67;15.93;;;2.70;99.90;;;;;;5039855;28;20689;-80
2021/01/16 04:31:47;;;;;;;29.50;15.82;;;2.70;99.90;;;;;;5042955;28;20303;-80
2021/01/16 04:34:14;;;;;;;28.58;14.85;;;2.80;99.90;;;;;;5044613;28;20223;-80
2021/01/16 04:36:41;;;;;;;24.48;14.02;;;2.50;99.90;;;;;;5043895;28;20207;-80
2021/01/16 04:39:08;;;;;;;24.05;15.15;;;2.70;99.90;;;;;;5040247;28;20227;-80
2021/01/16 04:41:36;;;;;;;27.67;15.18;;;2.70;99.90;;;;;;5035207;28;20199;-80
2021/01/16 04:44:04;;;;;;;27.60;15.20;;;2.60;99.90;;;;;;5039759;28;20253;-80
2021/01/16 04:46:33;;;;;;;25.13;14.60;;;2.50;99.90;;;;;;5036381;28;20265;-80
2021/01/16 04:49:03;;;;;;;28.10;16.25;;;2.80;99.90;;;;;;5040201;28;20249;-80
2021/01/16 04:51:32;;;;;;;26.73;15.98;;;2.70;99.90;;;;;;5021281;28;20208;-80
2021/01/16 04:54:01;;;;;;;26.00;15.15;;;2.80;99.90;;;;;;5033951;28;20219;-80
2021/01/16 04:56:28;;;;;;;26.17;15.40;;;2.70;99.90;;;;;;5040434;28;20275;-79
2021/01/16 04:58:56;;;;;;;24.90;14.05;;;2.80;99.90;;;;;;5026040;28;20267;-80
2021/01/16 05:01:27;;;;;;;27.02;15.02;;;2.80;99.90;;;;;;5039485;28;20275;-80
2021/01/16 05:03:56;;;;;;;28.52;14.82;;;2.60;99.90;;;;;;5039599;28;20622;-80
2021/01/16 05:06:25;;;;;;;23.90;14.20;;;2.50;99.90;;;;;;5034231;28;20199;-81
2021/01/16 05:08:57;;;;;;;28.63;16.77;;;2.60;99.90;;;;;;5037949;28;20246;-80
2021/01/16 05:11:39;;;;;;;24.65;14.07;;;2.80;99.90;;;;;;5036055;28;20199;-81
2021/01/16 05:14:15;;;;;;;35.40;17.02;;;2.80;99.90;;;;;;5034425;28;20266;-80
2021/01/16 05:16:53;;;;;;;27.17;16.23;;;2.60;99.90;;;;;;5026379;28;20211;-81
2021/01/16 05:19:31;;;;;;;26.95;14.88;;;2.70;99.90;;;;;;5023697;28;20230;-80
2021/01/16 05:21:58;;;;;;;30.30;15.68;;;2.60;99.90;;;;;;5033753;28;20203;-80
2021/01/16 05:24:26;;;;;;;29.17;15.82;;;2.60;99.90;;;;;;5034127;28;20191;-80
2021/01/16 05:27:04;;;;;;;32.28;16.35;;;2.80;99.90;;;;;;5033228;28;20207;-80
2021/01/16 05:29:32;;;;;;;30.50;16.83;;;2.80;99.90;;;;;;5033367;28;20528;-80
2021/01/16 05:32:01;;;;;;;25.45;14.65;;;2.80;99.90;;;;;;5032679;28;20207;-80
2021/01/16 05:34:29;;;;;;;24.55;15.10;;;2.70;99.90;;;;;;5035535;28;20242;-80
2021/01/16 05:36:56;;;;;;;28.23;14.95;;;2.60;99.90;;;;;;5028735;28;20272;-79
2021/01/16 05:39:25;;;;;;;27.77;15.90;;;2.70;99.90;;;;;;5033301;28;20238;-80
2021/01/16 05:41:57;;;;;;;26.60;15.65;;;2.60;99.90;;;;;;5033087;28;20590;-80
2021/01/16 05:44:26;;;;;;;25.65;14.77;;;2.70;99.90;;;;;;5028995;28;20200;-80
2021/01/16 05:46:55;;;;;;;27.17;14.65;;;2.70;99.90;;;;;;5012161;28;20246;-80
2021/01/16 05:49:22;;;;;;;25.90;15.48;;;2.80;99.90;;;;;;5029254;28;20237;-79
2021/01/16 05:51:50;;;;;;;27.63;15.60;;;2.70;99.90;;;;;;5032232;28;20237;-80
2021/01/16 05:54:18;;;;;;;27.45;15.35;;;2.70;99.90;;;;;;5031938;28;20258;-82
2021/01/16 05:56:45;;;;;;;25.30;14.65;;;2.80;99.90;;;;;;5031294;28;20207;-80
2021/01/16 05:59:12;;;;;;;27.23;15.77;;;2.70;99.90;;;;;;5015770;28;20653;-80
2021/01/16 06:01:40;;;;;;;27.08;15.77;;;2.70;99.90;;;;;;5022556;28;20210;-80
2021/01/16 06:04:07;;;;;;;24.45;15.68;;;2.60;99.90;;;;;;5019550;28;20227;-80
2021/01/16 06:06:35;;;;;;;28.35;15.02;;;2.80;99.90;;;;;;5021031;28;20221;-80
2021/01/16 06:09:04;;;;;;;23.77;14.82;;;2.60;99.90;;;;;;5032745;28;20253;-81
2021/01/16 06:11:38;;;;;;;26.50;15.40;;;2.70;99.90;;;;;;5034742;28;20203;-80
2021/01/16 06:14:07;;;;;;;30.75;16.67;;;2.70;99.90;;;;;;5034873;28;20246;-81
2021/01/16 06:16:48;;;;;;;26.30;15.40;;;2.50;99.90;;;;;;5041664;28;20229;-80
2021/01/16 06:19:19;;;;;;;28.98;16.35;;;2.80;99.90;;;;;;5046663;28;20294;-80
2021/01/16 06:21:46;;;;;;;28.20;16.02;;;2.90;99.90;;;;;;5059612;28;20221;-80
2021/01/16 06:24:15;;;;;;;25.05;14.57;;;2.60;99.90;;;;;;5050929;28;20195;-80
2021/01/16 06:26:43;;;;;;;32.70;17.45;;;2.40;99.90;;;;;;5045393;28;20730;-80
2021/01/16 06:29:25;;;;;;;25.50;16.27;;;2.50;99.90;;;;;;5041526;28;20231;-80
2021/01/16 06:31:52;;;;;;;28.45;16.05;;;2.50;99.90;;;;;;5042709;28;20233;-80
2021/01/16 06:34:30;;;;;;;28.65;16.50;;;2.50;99.90;;;;;;5027156;28;20227;-81
2021/01/16 06:37:08;;;;;;;25.05;14.95;;;2.70;99.90;;;;;;5040092;28;20211;-80
2021/01/16 06:39:40;;;;;;;30.15;15.43;;;2.50;99.90;;;;;;5024629;28;20261;-80
2021/01/16 06:42:10;;;;;;;31.05;15.90;;;2.70;99.90;;;;;;5023518;28;20235;-81
2021/01/16 06:44:38;;;;;;;26.48;15.90;;;2.50;99.90;;;;;;5030257;28;20522;-80
2021/01/16 06:47:05;;;;;;;32.13;16.95;;;2.50;99.90;;;;;;5042653;28;20215;-80
2021/01/16 06:49:33;;;;;;;27.00;15.73;;;2.60;99.90;;;;;;5034884;28;20233;-80
2021/01/16 06:52:01;;;;;;;27.88;16.48;;;2.60;99.90;;;;;;5035510;28;20207;-80
2021/01/16 06:54:30;;;;;;;25.13;15.27;;;2.60;99.90;;;;;;5022060;28;20954;-80
2021/01/16 06:57:08;;;;;;;28.35;16.75;;;2.70;99.90;;;;;;5028452;28;20200;-80
2021/01/16 06:59:36;;;;;;;28.08;16.10;;;2.60;99.90;;;;;;5023625;28;20207;-80
2021/01/16 07:02:21;;;;;;;35.95;16.65;;;2.70;99.90;;;;;;5025176;28;20269;-80
2021/01/16 07:04:53;;;;;;;29.90;17.30;;;2.70;99.90;;;;;;5044178;28;20289;-80
2021/01/16 07:07:31;;;;;;;28.75;15.45;;;2.80;99.90;;;;;;5043995;28;20226;-79
2021/01/16 07:10:00;;;;;;;26.65;16.30;;;2.70;99.90;;;;;;5042441;28;20210;-80
2021/01/16 07:12:26;;;;;;;27.45;15.73;;;2.40;99.90;;;;;;5040171;28;20211;-81
2021/01/16 07:14:53;;;;;;;29.35;16.15;;;2.40;99.90;;;;;;5040590;28;20250;-81
2021/01/16 07:17:22;;;;;;;28.95;16.23;;;2.30;99.90;;;;;;5038499;28;20322;-81
2021/01/16 07:19:49;;;;;;;28.92;16.73;;;2.60;99.90;;;;;;5047164;28;20229;-80
2021/01/16 07:22:17;;;;;;;27.13;16.10;;;2.60;99.90;;;;;;5045889;28;20344;-80
2021/01/16 07:24:54;;;;;;;26.02;15.20;;;2.40;99.90;;;;;;5046604;28;20216;-80
2021/01/16 07:27:21;;;;;;;25.25;14.38;;;2.50;99.90;;;;;;5042376;28;20661;-80
2021/01/16 07:29:47;;;;;;;32.75;17.52;;;2.50;99.90;;;;;;5027253;28;20204;-81
2021/01/16 07:32:15;;;;;;;28.90;15.20;;;2.50;99.90;;;;;;5034932;28;20641;-81
2021/01/16 07:34:46;;;;;;;34.88;16.95;;;2.50;99.90;;;;;;5042888;28;20235;-80
2021/01/16 07:37:18;;;;;;;28.80;16.42;;;2.50;99.90;;;;;;5034480;28;20207;-81
2021/01/16 07:39:45;;;;;;;28.00;15.90;;;2.50;99.90;;;;;;5033142;28;20251;-81
2021/01/16 07:42:14;;;;;;;30.08;16.73;;;2.20;99.90;;;;;;5033692;28;20211;-81
2021/01/16 07:44:45;;;;;;;34.70;16.50;;;2.40;99.90;;;;;;5035002;28;20230;-80
2021/01/16 07:47:23;;;;;;;30.02;17.42;;;2.40;99.90;;;;;;5036522;28;20208;-80
2021/01/16 07:49:54;;;;;;;26.40;15.43;;;2.30;99.90;;;;;;5040512;28;20214;-80
2021/01/16 07:52:25;;;;;;;29.23;15.60;;;2.20;99.90;;;;;;5037515;28;20282;-80
2021/01/16 07:55:06;;;;;;;27.95;16.25;;;2.60;99.90;;;;;;5034660;28;20329;-81
2021/01/16 07:57:34;;;;;;;29.38;16.23;;;2.50;99.90;;;;;;5033443;28;20231;-81
2021/01/16 08:00:08;;;;;;;25.45;14.80;;;2.50;99.90;;;;;;5037222;28;20211;-80
2021/01/16 08:03:09;;;;;;;28.73;16.10;;;2.70;99.90;;;;;;5034135;28;20345;-80
2021/01/16 08:05:45;;;;;;;29.35;15.60;;;2.40;99.90;;;;;;5028923;28;20291;-81
2021/01/16 08:08:33;;;;;;;32.42;15.60;;;2.50;99.90;;;;;;5036599;28;20233;-80
2021/01/16 08:11:04;;;;;;;25.20;14.95;;;2.60;99.90;;;;;;5033356;28;20207;-81
2021/01/16 08:13:30;;;;;;;29.98;16.95;;;2.40;99.90;;;;;;5035579;28;20250;-81
2021/01/16 08:16:03;;;;;;;27.70;16.92;;;2.50;99.90;;;;;;5041349;28;20235;-80
2021/01/16 08:18:34;;;;;;;30.50;16.80;;;2.60;99.90;;;;;;5039819;28;20306;-81
2021/01/16 08:21:08;;;;;;;26.75;16.40;;;2.40;99.90;;;;;;5033199;28;20252;-81
2021/01/16 08:23:47;;;;;;;30.63;17.27;;;2.40;99.90;;;;;;5033073;28;20285;-81
2021/01/16 08:26:14;;;;;;;26.27;15.15;;;2.50;99.90;;;;;;5034887;28;20289;-79
2021/01/16 08:28:43;;;;;;;30.50;16.65;;;2.50;99.90;;;;;;5036719;28;20644;-79
2021/01/16 08:31:28;;;;;;;29.35;16.45;;;2.40;99.90;;;;;;5038166;28;20287;-83
2021/01/16 08:33:54;;;;;;;31.75;18.00;;;2.40;99.90;;;;;;5022577;28;20707;-81
2021/01/16 08:36:22;;;;;;;31.05;16.50;;;2.50;99.90;;;;;;5035707;28;20237;-81
2021/01/16 08:38:51;;;;;;;30.35;17.98;;;2.70;99.90;;;;;;5042416;28;20224;-81
2021/01/16 08:41:23;;;;;;;28.05;17.52;;;2.50;99.90;;;;;;5039285;28;20253;-81
2021/01/16 08:43:55;;;;;;;30.75;17.35;;;2.60;99.90;;;;;;5036576;28;20597;-80
2021/01/16 08:46:30;;;;;;;30.33;16.10;;;2.50;99.90;;;;;;5036397;28;20206;-80
2021/01/16 08:49:03;;;;;;;27.63;16.42;;;2.40;99.90;;;;;;5037615;28;20249;-80
2021/01/16 08:51:35;;;;;;;28.08;16.67;;;2.50;99.90;;;;;;5038046;28;20204;-80
2021/01/16 08:54:13;;;;;;;32.35;18.10;;;2.50;99.90;;;;;;5031288;28;20669;-80
2021/01/16 08:56:41;;;;;;;30.33;17.52;;;2.50;99.90;;;;;;5046220;28;20199;-81
2021/01/16 08:59:19;;;;;;;24.92;16.80;;;2.50;99.90;;;;;;5036083;28;20285;-81
2021/01/16 09:01:46;;;;;;;30.48;17.55;;;2.60;99.90;;;;;;5036963;28;20677;-81
2021/01/16 09:04:17;;;;;;;28.52;16.67;;;2.50;99.90;;;;;;5037266;28;20211;-81
2021/01/16 09:06:43;;;;;;;26.83;15.82;;;2.50;99.90;;;;;;5037775;28;20682;-80
2021/01/16 09:09:13;;;;;;;28.20;16.55;;;2.40;99.90;;;;;;5031740;28;20223;-81
2021/01/16 09:11:40;;;;;;;27.60;16.13;;;2.60;99.90;;;;;;5035769;28;20267;-81
2021/01/16 09:14:06;;;;;;;32.15;18.83;;;2.30;99.90;;;;;;5039800;28;20256;-81
2021/01/16 09:16:34;;;;;;;32.38;17.50;;;2.40;99.90;;;;;;5036111;28;20544;-81
2021/01/16 09:19:01;;;;;;;31.15;18.50;;;2.30;99.90;;;;;;5035914;28;20310;-81
2021/01/16 09:21:28;;;;;;;31.23;17.00;;;2.30;99.90;;;;;;5035982;28;20233;-81
2021/01/16 09:23:56;;;;;;;28.83;15.18;;;2.20;99.90;;;;;;5040199;28;20230;-81
2021/01/16 09:26:27;;;;;;;24.77;14.75;;;2.50;99.90;;;;;;5046854;28;20320;-81
2021/01/16 09:28:54;;;;;;;25.70;15.57;;;2.50;99.90;;;;;;5048447;28;20410;-82
2021/01/16 09:31:27;;;;;;;28.00;16.75;;;2.70;99.90;;;;;;5047396;28;20211;-81
2021/01/16 09:33:55;;;;;;;22.92;14.43;;;2.60;99.90;;;;;;5045832;28;20233;-81
2021/01/16 09:36:42;;;;;;;22.90;13.25;;;2.60;99.90;;;;;;5045622;28;20203;-81
2021/01/16 09:39:24;;;;;;;24.33;14.02;;;2.70;99.90;;;;;;5043277;28;20230;-81
2021/01/16 09:41:54;;;;;;;22.95;14.02;;;2.90;99.90;;;;;;5022395;28;20211;-82
2021/01/16 09:44:52;;;;;;;21.38;13.98;;;2.90;99.90;;;;;;5026237;28;20207;-80
2021/01/16 09:47:50;;;;;;;24.42;13.75;;;3.00;99.90;;;;;;5027259;28;20219;-81
2021/01/16 09:50:18;;;;;;;23.73;12.75;;;2.80;99.90;;;;;;5020164;28;20215;-80
2021/01/16 09:52:50;;;;;;;22.83;13.15;;;2.90;99.90;;;;;;5041348;28;20237;-80
2021/01/16 09:55:21;;;;;;;20.98;13.32;;;3.00;99.90;;;;;;5045461;28;20234;-80
2021/01/16 09:57:50;;;;;;;21.52;12.07;;;3.00;99.90;;;;;;5062850;28;20238;-80
2021/01/16 10:00:17;;;;;;;20.25;12.23;;;3.00;99.90;;;;;;5062035;28;20210;-81
2021/01/16 10:02:45;;;;;;;21.23;12.52;;;2.80;99.90;;;;;;5044344;28;20203;-81
2021/01/16 10:05:15;;;;;;;21.30;12.18;;;2.80;99.90;;;;;;5044397;28;20219;-81
2021/01/16 10:07:45;;;;;;;17.70;10.98;;;3.10;99.90;;;;;;5041733;28;20235;-78
2021/01/16 10:10:14;;;;;;;15.35;10.00;;;2.90;99.90;;;;;;5039155;28;20203;-79
2021/01/16 10:12:43;;;;;;;17.75;10.25;;;3.20;99.90;;;;;;5041249;28;20273;-80
2021/01/16 10:15:13;;;;;;;19.23;10.52;;;3.30;99.90;;;;;;5042341;28;20326;-80
2021/01/16 10:17:45;;;;;;;16.50;9.80;;;3.30;99.90;;;;;;5042248;28;20230;-80
2021/01/16 10:20:14;;;;;;;15.65;10.20;;;3.20;99.90;;;;;;5036191;28;20614;-78
2021/01/16 10:22:48;;;;;;;16.67;10.05;;;3.00;99.90;;;;;;5035400;28;20268;-77
2021/01/16 10:25:15;;;;;;;16.45;9.55;;;3.30;99.90;;;;;;5035956;28;20207;-77
2021/01/16 10:27:45;;;;;;;18.83;10.68;;;3.20;99.90;;;;;;5035271;28;20227;-76
2021/01/16 10:30:17;;;;;;;16.98;10.20;;;3.50;99.90;;;;;;5035773;28;20216;-76
2021/01/16 10:32:44;;;;;;;19.83;11.20;;;3.30;99.90;;;;;;5036103;28;20249;-76
2021/01/16 10:35:19;;;;;;;16.40;10.40;;;3.30;99.90;;;;;;5036758;28;20234;-76
2021/01/16 10:37:46;;;;;;;16.25;9.32;;;3.30;99.90;;;;;;5035739;28;20275;-76
2021/01/16 10:40:13;;;;;;;17.45;9.40;;;3.50;99.90;;;;;;5038410;28;20203;-76
2021/01/16 10:42:42;;;;;;;14.98;8.68;;;3.50;99.90;;;;;;5049690;28;20229;-83
2021/01/16 10:45:10;;;;;;;19.73;12.10;;;3.60;99.90;;;;;;5056845;28;20206;-82
2021/01/16 10:47:39;;;;;;;14.18;8.77;;;3.50;99.90;;;;;;5039469;28;20231;-82
2021/01/16 10:50:09;;;;;;;15.35;9.75;;;3.50;99.90;;;;;;5042211;28;21020;-80
2021/01/16 10:52:36;;;;;;;15.38;9.10;;;3.60;99.90;;;;;;5038203;28;20745;-82
2021/01/16 10:55:05;;;;;;;14.88;9.15;;;3.70;99.90;;;;;;5050129;28;20222;-81
2021/01/16 10:57:44;;;;;;;16.50;9.93;;;3.80;99.90;;;;;;5057609;28;20321;-82
2021/01/16 11:00:12;;;;;;;14.75;9.00;;;3.70;99.90;;;;;;5060334;28;20566;-82
2021/01/16 11:02:42;;;;;;;16.30;9.10;;;3.80;99.90;;;;;;5041900;28;20235;-82
2021/01/16 11:05:25;;;;;;;16.08;9.48;;;3.80;99.90;;;;;;5040339;28;20672;-80
2021/01/16 11:07:54;;;;;;;12.63;8.27;;;3.80;99.90;;;;;;5028721;28;20231;-76
2021/01/16 11:10:34;;;;;;;10.20;5.97;;;3.60;99.90;;;;;;5035908;28;20544;-77
2021/01/16 11:13:22;;;;;;;12.93;7.65;;;3.80;99.90;;;;;;5034945;28;20222;-81
2021/01/16 11:15:52;;;;;;;12.95;8.18;;;4.00;99.90;;;;;;5022130;28;20223;-81
2021/01/16 11:18:34;;;;;;;11.25;7.30;;;3.70;99.90;;;;;;5036917;28;20231;-81
2021/01/16 11:21:03;;;;;;;11.43;6.75;;;3.70;99.90;;;;;;5042908;28;20306;-80
2021/01/16 11:23:32;;;;;;;11.25;7.65;;;3.70;99.90;;;;;;5038187;28;20700;-80
2021/01/16 11:26:06;;;;;;;11.13;6.15;;;3.90;99.90;;;;;;5040959;28;20319;-80
2021/01/16 11:28:51;;;;;;;14.57;7.25;;;3.80;99.90;;;;;;5017117;28;20227;-79
2021/01/16 11:31:33;;;;;;;10.88;6.97;;;3.80;99.90;;;;;;5021943;28;20222;-80
2021/01/16 11:34:21;;;;;;;12.10;6.57;;;3.90;99.90;;;;;;5038401;28;20233;-80
2021/01/16 11:36:59;;;;;;;10.38;6.25;;;3.90;99.40;;;;;;5036536;28;20222;-80
2021/01/16 11:39:45;;;;;;;11.45;6.30;;;4.00;99.20;;;;;;5015411;28;20235;-80
2021/01/16 11:42:13;;;;;;;12.80;6.90;;;3.90;99.10;;;;;;5025016;28;20207;-80
2021/01/16 11:44:57;;;;;;;11.55;5.95;;;3.90;99.10;;;;;;5033364;28;20207;-80
2021/01/16 11:47:25;;;;;;;10.45;6.90;;;3.90;98.90;;;;;;5031444;28;20218;-80
2021/01/16 11:49:55;;;;;;;10.80;6.72;;;4.10;99.10;;;;;;5033256;28;20575;-80
2021/01/16 11:52:22;;;;;;;7.90;4.88;;;4.20;98.90;;;;;;5027833;28;20266;-80
2021/01/16 11:54:49;;;;;;;8.00;5.05;;;4.10;97.50;;;;;;5026498;28;20234;-80
2021/01/16 11:57:19;;;;;;;7.70;4.78;;;3.80;96.60;;;;;;5035415;28;20207;-80
2021/01/16 11:59:47;;;;;;;10.85;5.35;;;4.00;97.40;;;;;;5035014;28;20263;-80
2021/01/16 12:02:14;;;;;;;16.92;10.50;;;4.10;97.40;;;;;;5033991;28;20211;-81
2021/01/16 12:04:43;;;;;;;14.38;8.98;;;3.90;99.90;;;;;;5053156;28;20202;-81
2021/01/16 12:07:12;;;;;;;15.65;10.48;;;3.90;99.90;;;;;;5051338;28;20222;-79
2021/01/16 12:09:42;;;;;;;14.93;8.93;;;3.70;99.90;;;;;;5054433;28;20203;-79
2021/01/16 12:12:10;;;;;;;15.18;9.23;;;3.60;99.90;;;;;;5033955;28;20214;-83
2021/01/16 12:14:38;;;;;;;17.25;10.55;;;3.90;99.90;;;;;;5033457;28;20215;-81
2021/01/16 12:17:09;;;;;;;16.83;9.75;;;4.00;99.90;;;;;;5036929;28;20537;-81
2021/01/16 12:19:36;;;;;;;18.95;11.88;;;3.80;99.90;;;;;;5046135;28;20217;-81
2021/01/16 12:22:04;;;;;;;23.67;13.68;;;3.50;99.90;;;;;;5053276;28;20213;-80
2021/01/16 12:24:32;;;;;;;24.55;13.77;;;3.80;99.90;;;;;;5041722;28;20276;-81
2021/01/16 12:27:01;;;;;;;19.95;12.30;;;3.60;99.90;;;;;;5033554;28;20234;-81
2021/01/16 12:29:40;;;;;;;20.45;13.52;;;3.80;99.90;;;;;;5039154;28;20227;-81
2021/01/16 12:32:11;;;;;;;20.45;10.93;;;3.90;99.90;;;;;;5036394;28;20222;-81
2021/01/16 12:34:48;;;;;;;16.30;9.55;;;3.40;99.90;;;;;;5035091;28;20232;-81
2021/01/16 12:37:22;;;;;;;18.02;10.85;;;3.20;99.90;;;;;;5036657;28;20221;-80
2021/01/16 12:39:50;;;;;;;19.35;12.40;;;3.20;99.90;;;;;;5036938;28;20211;-82
2021/01/16 12:42:17;;;;;;;19.55;10.90;;;3.10;99.90;;;;;;5036349;28;20264;-81
2021/01/16 12:44:43;;;;;;;12.13;8.05;;;3.00;99.90;;;;;;5034895;28;20207;-81
2021/01/16 12:47:16;;;;;;;22.30;12.35;;;2.80;99.90;;;;;;5036569;28;20234;-79
2021/01/16 12:49:47;;;;;;;17.58;8.90;;;2.80;99.90;;;;;;5033943;28;20211;-78
2021/01/16 12:52:22;;;;;;;27.33;14.80;;;2.90;99.90;;;;;;5025630;28;20215;-76
2021/01/16 12:55:01;;;;;;;22.10;13.48;;;3.00;99.90;;;;;;5010669;28;20713;-76